This is the latest recevied weather packets stored in our database for station/object SP5IZJ-2. If no packets are shown the sender has not sent any weather packets the latest 10 day(s).
| Time | Temp. | Humidity | Pressure | Rain* | Wind** | Luminosity | Snow |
|---|---|---|---|---|---|---|---|
| 1777561549 | 13.33° C | 30% | 1020.4 hPa | 0 mm | - | - | - |
| 1777559450 | 12.78° C | 30% | 1020.9 hPa | 0 mm | - | - | - |
| 1777556512 | 18.33° C | 24% | 1021.3 hPa | 0 mm | - | - | - |
| 1777555252 | 18.33° C | 24% | 1021 hPa | 0 mm | - | - | - |
| 1777551893 | 16.67° C | 23% | 1021.7 hPa | 0 mm | - | - | - |
| 1777551474 | 17.78° C | 21% | 1022 hPa | 0 mm | - | - | - |
| 1777550638 | 19.44° C | 23% | 1022.3 hPa | 0 mm | - | - | - |
| 1777547709 | 15° C | 25% | 1022.4 hPa | 0 mm | - | - | - |
| 1777547276 | 15° C | 25% | 1022.3 hPa | 0 mm | - | - | - |
| 1777546018 | 14.44° C | 27% | 1022.7 hPa | 0 mm | - | - | - |
| 1777545601 | 13.89° C | 30% | 1022.7 hPa | 0 mm | - | - | - |
| 1777545176 | 14.44° C | 29% | 1022.9 hPa | 0 mm | - | - | - |
| 1777544382 | 15.56° C | 29% | 1023 hPa | 0 mm | - | - | - |
| 1777543962 | 14.44° C | 31% | 1023.1 hPa | 0 mm | - | - | - |
| 1777542660 | 13.33° C | 31% | 1023.2 hPa | 0 mm | - | - | - |
| 1777542238 | 13.89° C | 32% | 1023.1 hPa | 0 mm | - | - | - |
| 1777541818 | 12.78° C | 33% | 1023.2 hPa | 0 mm | - | - | - |
| 1777541398 | 12.22° C | 33% | 1023.2 hPa | 0 mm | - | - | - |
| 1777540987 | 12.78° C | 32% | 1023.4 hPa | 0 mm | - | - | - |
| 1777540561 | 12.22° C | 33% | 1023.5 hPa | 0 mm | - | - | - |
| 1777539718 | 12.78° C | 33% | 1023.5 hPa | 0 mm | - | - | - |
| 1777539299 | 12.22° C | 37% | 1023.7 hPa | 0 mm | - | - | - |
| 1777538924 | 12.22° C | 37% | 1023.6 hPa | 0 mm | - | - | - |
| 1777538504 | 11.67° C | 36% | 1023.8 hPa | 0 mm | - | - | - |
| 1777538084 | 12.22° C | 35% | 1023.6 hPa | 0 mm | - | - | - |
* Rain latest hour (hover to see other rain measurements)
** Current wind speed in m/s (hover to see current wind gust speed)